Time;durP1;ratioP1;P1;durP2;ratioP2;P2;SDS_P1;SDS_P2;PMS_P1;PMS_P2;Temp;Humidity;BMP_temperature;BMP_pressure;BME280_temperature;BME280_humidity;BME280_pressure;Samples;Min_cycle;Max_cycle;Signal;HPM_P1;HPM_P2
2024/01/10 00:01:36;;;;;;;66.10;27.20;;;-9.00;99.90;;;;;;5028643;28;20083;-77
2024/01/10 00:04:02;;;;;;;59.15;26.27;;;-9.10;99.90;;;;;;5020682;28;20033;-79
2024/01/10 00:06:28;;;;;;;56.42;24.60;;;-9.10;99.90;;;;;;5027440;28;20022;-78
2024/01/10 00:08:53;;;;;;;61.75;26.15;;;-9.20;99.90;;;;;;5024622;28;20037;-80
2024/01/10 00:11:19;;;;;;;66.88;25.65;;;-9.10;99.90;;;;;;5023018;28;20025;-78
2024/01/10 00:13:45;;;;;;;70.07;26.27;;;-9.30;99.90;;;;;;5023763;28;20193;-77
2024/01/10 00:16:15;;;;;;;77.35;27.75;;;-9.30;99.90;;;;;;5021620;28;20032;-78
2024/01/10 00:18:40;;;;;;;70.78;28.20;;;-9.30;99.90;;;;;;5021000;28;20433;-78
2024/01/10 00:21:07;;;;;;;69.95;26.63;;;-9.30;99.90;;;;;;5023582;28;20041;-78
2024/01/10 00:23:32;;;;;;;72.03;28.42;;;-9.30;99.90;;;;;;5021928;28;20379;-77
2024/01/10 00:25:58;;;;;;;68.78;28.08;;;-9.30;99.90;;;;;;5021777;28;20032;-79
2024/01/10 00:28:25;;;;;;;75.05;30.67;;;-9.30;99.90;;;;;;5021792;28;20021;-78
2024/01/10 00:30:51;;;;;;;80.38;29.48;;;-9.30;99.90;;;;;;5027239;28;20124;-84
2024/01/10 00:33:17;;;;;;;75.32;30.70;;;-9.30;99.90;;;;;;5014341;28;20104;-78
2024/01/10 00:35:42;;;;;;;77.00;29.55;;;-9.30;99.90;;;;;;5020071;28;20026;-77
2024/01/10 00:38:09;;;;;;;73.60;29.98;;;-9.40;99.90;;;;;;5032062;28;20476;-80
2024/01/10 00:40:35;;;;;;;70.20;29.00;;;-9.30;99.90;;;;;;5031542;28;20497;-79
2024/01/10 00:43:04;;;;;;;77.57;29.25;;;-9.30;99.90;;;;;;5023163;28;20029;-83
2024/01/10 00:45:29;;;;;;;83.32;29.95;;;-9.20;99.90;;;;;;5025350;28;20490;-77
2024/01/10 00:47:55;;;;;;;70.80;29.17;;;-9.30;99.90;;;;;;5027064;28;20032;-78
2024/01/10 00:50:21;;;;;;;77.47;30.00;;;-9.20;99.90;;;;;;5021127;28;20042;-77
2024/01/10 00:52:46;;;;;;;70.25;28.77;;;-9.20;99.90;;;;;;5023189;28;20017;-78
2024/01/10 00:55:12;;;;;;;69.38;27.67;;;-9.30;99.90;;;;;;5027404;28;20116;-78
2024/01/10 00:57:41;;;;;;;65.35;26.20;;;-9.30;99.90;;;;;;5018890;28;20030;-84
2024/01/10 01:00:11;;;;;;;67.40;28.00;;;-9.20;99.90;;;;;;5015313;28;20117;-77
2024/01/10 01:02:39;;;;;;;62.92;26.42;;;-9.20;99.90;;;;;;5019229;28;20090;-80
2024/01/10 01:05:09;;;;;;;71.22;28.92;;;-9.20;99.90;;;;;;5020305;28;20132;-78
2024/01/10 01:07:34;;;;;;;65.68;27.55;;;-9.20;99.90;;;;;;5021632;28;20036;-77
2024/01/10 01:10:04;;;;;;;57.33;24.45;;;-9.20;99.90;;;;;;5016445;28;20501;-77
2024/01/10 01:12:29;;;;;;;72.35;26.33;;;-9.20;99.90;;;;;;5018254;28;20079;-77
2024/01/10 01:14:55;;;;;;;73.50;29.17;;;-9.20;99.90;;;;;;5017706;28;20033;-78
2024/01/10 01:17:20;;;;;;;69.45;26.10;;;-9.20;99.90;;;;;;5023268;28;20406;-77
2024/01/10 01:19:46;;;;;;;80.93;30.45;;;-9.20;99.90;;;;;;5025846;28;20037;-77
2024/01/10 01:22:11;;;;;;;77.22;29.73;;;-9.20;99.90;;;;;;5025763;28;20470;-78
2024/01/10 01:24:37;;;;;;;58.88;25.38;;;-9.20;99.90;;;;;;5022408;28;20222;-78
2024/01/10 01:27:03;;;;;;;78.18;30.48;;;-9.30;99.90;;;;;;5023345;28;20025;-78
2024/01/10 01:29:29;;;;;;;92.95;31.90;;;-9.30;99.90;;;;;;5020259;28;20502;-78
2024/01/10 01:31:54;;;;;;;85.00;32.13;;;-9.30;99.90;;;;;;5025959;28;20021;-77
2024/01/10 01:34:20;;;;;;;79.65;29.90;;;-9.30;99.90;;;;;;5022880;28;20089;-79
2024/01/10 01:36:46;;;;;;;73.82;30.00;;;-9.40;99.90;;;;;;5024894;28;20029;-79
2024/01/10 01:39:13;;;;;;;81.13;28.02;;;-9.30;99.90;;;;;;5022932;28;20116;-79
2024/01/10 01:41:40;;;;;;;86.80;32.28;;;-9.30;99.90;;;;;;5031413;28;20041;-77
2024/01/10 01:44:05;;;;;;;71.07;29.13;;;-9.30;99.90;;;;;;5029728;28;20041;-78
2024/01/10 01:46:32;;;;;;;87.32;32.25;;;-9.30;99.90;;;;;;5031534;28;20026;-84
2024/01/10 01:48:59;;;;;;;75.67;31.73;;;-9.40;99.90;;;;;;5024023;28;20044;-77
2024/01/10 01:51:28;;;;;;;79.17;30.17;;;-9.40;99.90;;;;;;5028289;28;20055;-78
2024/01/10 01:53:54;;;;;;;77.72;31.67;;;-9.40;99.90;;;;;;5023655;28;20382;-80
2024/01/10 01:56:20;;;;;;;82.63;31.08;;;-9.40;99.90;;;;;;5024882;28;20029;-79
2024/01/10 01:58:47;;;;;;;70.68;29.88;;;-9.50;99.90;;;;;;5022741;28;20482;-78
2024/01/10 02:01:12;;;;;;;80.75;30.13;;;-9.50;99.90;;;;;;5028372;28;20048;-77
2024/01/10 02:03:38;;;;;;;73.57;29.25;;;-9.50;99.90;;;;;;5021594;28;20029;-78
2024/01/10 02:06:04;;;;;;;83.18;32.97;;;-9.50;99.90;;;;;;5029800;28;20049;-77
2024/01/10 02:08:35;;;;;;;70.63;29.45;;;-9.50;99.90;;;;;;5023599;28;20033;-84
2024/01/10 02:11:02;;;;;;;85.03;32.17;;;-9.40;99.90;;;;;;5024068;28;20025;-84
2024/01/10 02:13:29;;;;;;;92.88;31.33;;;-9.50;99.90;;;;;;5014614;28;20029;-79
2024/01/10 02:15:55;;;;;;;91.65;35.55;;;-9.50;99.90;;;;;;5013600;28;20043;-78
2024/01/10 02:18:21;;;;;;;90.40;34.30;;;-9.50;99.90;;;;;;5021365;28;20030;-78
2024/01/10 02:20:47;;;;;;;69.50;31.70;;;-9.50;99.90;;;;;;5022084;28;20113;-78
2024/01/10 02:26:36;;;;;;;85.60;32.42;;;-9.40;99.90;;;;;;5025211;28;20076;-78
2024/01/10 02:29:01;;;;;;;90.53;32.13;;;-9.30;99.90;;;;;;5029875;28;20041;-77
2024/01/10 02:31:27;;;;;;;82.57;32.80;;;-9.30;99.90;;;;;;5024482;28;20367;-80
2024/01/10 02:33:53;;;;;;;78.05;31.98;;;-9.30;99.90;;;;;;5029719;28;20052;-81
2024/01/10 02:36:18;;;;;;;75.88;31.52;;;-9.30;99.90;;;;;;5030177;28;20029;-77
2024/01/10 02:38:44;;;;;;;79.32;29.40;;;-9.30;99.90;;;;;;5028735;28;20036;-81
2024/01/10 02:41:09;;;;;;;77.78;30.75;;;-9.20;99.90;;;;;;5024712;28;20021;-77
2024/01/10 02:43:38;;;;;;;83.60;32.53;;;-9.20;99.90;;;;;;5024474;28;20478;-85
2024/01/10 02:46:04;;;;;;;82.63;31.10;;;-9.10;99.90;;;;;;5024386;28;20510;-77
2024/01/10 02:48:29;;;;;;;84.40;31.45;;;-9.20;99.90;;;;;;5030317;28;20025;-77
2024/01/10 02:50:56;;;;;;;71.93;30.05;;;-9.20;99.90;;;;;;5023712;28;20044;-81
2024/01/10 02:53:24;;;;;;;77.80;33.35;;;-9.30;99.90;;;;;;5025852;28;20071;-84
2024/01/10 02:55:50;;;;;;;78.85;31.58;;;-9.30;99.90;;;;;;5022085;28;20436;-77
2024/01/10 02:58:16;;;;;;;87.75;33.90;;;-9.40;99.90;;;;;;5027866;28;20036;-78
2024/01/10 03:00:41;;;;;;;89.55;36.17;;;-9.40;99.90;;;;;;5022479;28;20113;-77
2024/01/10 03:03:07;;;;;;;88.55;33.20;;;-9.40;99.90;;;;;;5034631;28;20071;-78
2024/01/10 03:05:32;;;;;;;83.57;35.88;;;-9.40;99.90;;;;;;5039908;28;20057;-78
2024/01/10 03:07:58;;;;;;;93.95;34.20;;;-9.40;99.90;;;;;;5030783;28;20244;-77
2024/01/10 03:10:23;;;;;;;99.10;34.05;;;-9.50;99.90;;;;;;5029221;28;20091;-80
2024/01/10 03:12:49;;;;;;;82.80;32.75;;;-9.50;99.90;;;;;;5032348;28;20032;-77
2024/01/10 03:15:15;;;;;;;97.70;38.13;;;-9.50;99.90;;;;;;5029969;28;20044;-78
2024/01/10 03:17:43;;;;;;;104.53;40.72;;;-9.50;99.90;;;;;;5030228;28;20076;-84
2024/01/10 03:20:09;;;;;;;104.20;39.60;;;-9.60;99.90;;;;;;5028363;28;20029;-79
2024/01/10 03:22:35;;;;;;;100.28;38.53;;;-9.60;99.90;;;;;;5025601;28;20381;-77
2024/01/10 03:25:00;;;;;;;96.70;36.42;;;-9.60;99.90;;;;;;5026677;28;20034;-77
2024/01/10 03:27:26;;;;;;;103.05;40.15;;;-9.60;99.90;;;;;;5025912;28;20040;-81
2024/01/10 03:29:51;;;;;;;111.30;41.63;;;-9.60;99.90;;;;;;5025819;28;20224;-79
2024/01/10 03:32:17;;;;;;;109.30;38.72;;;-9.50;99.90;;;;;;5029561;28;20124;-78
2024/01/10 03:34:43;;;;;;;103.15;39.80;;;-9.50;99.90;;;;;;5027720;28;20033;-77
2024/01/10 03:37:08;;;;;;;103.43;36.08;;;-9.50;99.90;;;;;;5025676;28;20083;-78
2024/01/10 03:39:34;;;;;;;96.05;34.83;;;-9.50;99.90;;;;;;5023985;28;20928;-77
2024/01/10 03:41:59;;;;;;;84.80;35.15;;;-9.40;99.90;;;;;;5027463;28;20029;-79
2024/01/10 03:44:26;;;;;;;97.88;35.63;;;-9.50;99.90;;;;;;5013624;28;20109;-77
2024/01/10 03:46:52;;;;;;;98.45;37.83;;;-9.50;99.90;;;;;;5019931;28;20092;-78
2024/01/10 03:49:18;;;;;;;95.90;40.10;;;-9.50;99.90;;;;;;5024072;28;20042;-77
2024/01/10 03:51:43;;;;;;;100.25;39.10;;;-9.50;99.90;;;;;;5028402;28;20502;-77
2024/01/10 03:54:09;;;;;;;110.03;40.15;;;-9.50;99.90;;;;;;5031055;28;20025;-82
2024/01/10 03:56:34;;;;;;;94.90;36.92;;;-9.50;99.90;;;;;;5023505;28;20993;-78
2024/01/10 03:59:01;;;;;;;120.45;42.63;;;-9.50;99.90;;;;;;5028362;28;20347;-77
2024/01/10 04:01:27;;;;;;;91.05;36.72;;;-9.50;99.90;;;;;;5022187;28;20229;-84
2024/01/10 04:03:52;;;;;;;90.25;35.92;;;-9.50;99.90;;;;;;5022853;28;20048;-78
2024/01/10 04:06:21;;;;;;;109.65;41.42;;;-9.50;99.90;;;;;;5025086;28;20046;-84
2024/01/10 04:08:46;;;;;;;109.22;39.22;;;-9.50;99.90;;;;;;5026776;28;20135;-84
2024/01/10 04:11:12;;;;;;;94.85;37.88;;;-9.40;99.90;;;;;;5020590;28;20120;-78
2024/01/10 04:13:38;;;;;;;102.47;37.70;;;-9.40;99.90;;;;;;5026570;28;20025;-79
2024/01/10 04:16:03;;;;;;;109.45;39.03;;;-9.40;99.90;;;;;;5019508;28;20030;-78
2024/01/10 04:18:29;;;;;;;111.80;41.65;;;-9.40;99.90;;;;;;5033855;28;20041;-77
2024/01/10 04:20:55;;;;;;;108.95;40.17;;;-9.30;99.90;;;;;;5030046;28;20034;-78
2024/01/10 04:23:20;;;;;;;102.88;38.67;;;-9.40;99.90;;;;;;5018808;28;20046;-77
2024/01/10 04:25:46;;;;;;;102.30;36.83;;;-9.50;99.90;;;;;;5019596;28;20037;-78
2024/01/10 04:28:11;;;;;;;101.07;36.97;;;-9.40;99.90;;;;;;5024176;28;20025;-78
2024/01/10 04:30:37;;;;;;;116.85;40.00;;;-9.40;99.90;;;;;;5020550;28;20048;-79
2024/01/10 04:33:03;;;;;;;108.05;40.38;;;-9.40;99.90;;;;;;5033923;28;20045;-76
2024/01/10 04:35:28;;;;;;;106.30;39.20;;;-9.40;99.90;;;;;;5016194;28;20426;-79
2024/01/10 04:37:54;;;;;;;108.72;42.05;;;-9.50;99.90;;;;;;5016576;28;20025;-81
2024/01/10 04:40:21;;;;;;;100.55;39.42;;;-9.50;99.90;;;;;;5019015;28;20025;-83
2024/01/10 04:42:47;;;;;;;112.90;40.33;;;-9.50;99.90;;;;;;5027432;28;20052;-79
2024/01/10 04:45:12;;;;;;;112.15;42.97;;;-9.50;99.90;;;;;;5027193;28;20494;-78
2024/01/10 04:47:38;;;;;;;109.53;41.88;;;-9.60;99.90;;;;;;5026031;28;20029;-79
2024/01/10 04:50:04;;;;;;;113.18;43.08;;;-9.60;99.90;;;;;;5014884;28;20040;-78
2024/01/10 04:52:30;;;;;;;120.13;43.28;;;-9.60;99.90;;;;;;5021527;28;20025;-78
2024/01/10 04:54:56;;;;;;;104.03;40.63;;;-9.60;99.90;;;;;;5020971;28;20030;-78
2024/01/10 04:57:21;;;;;;;105.45;39.70;;;-9.70;99.90;;;;;;5024306;28;20017;-80
2024/01/10 04:59:48;;;;;;;103.60;41.23;;;-9.70;99.90;;;;;;5027898;28;20033;-78
2024/01/10 05:02:14;;;;;;;105.53;37.80;;;-9.70;99.90;;;;;;5021483;28;20711;-77
2024/01/10 05:04:40;;;;;;;106.85;39.33;;;-9.70;99.90;;;;;;5020468;28;20041;-77
2024/01/10 05:07:06;;;;;;;109.47;40.93;;;-9.70;99.90;;;;;;5018536;28;20490;-78
2024/01/10 05:09:32;;;;;;;109.45;40.38;;;-9.70;99.90;;;;;;5024415;28;20044;-77
2024/01/10 05:11:58;;;;;;;102.90;39.90;;;-9.60;99.90;;;;;;5019679;28;20036;-78
2024/01/10 05:14:23;;;;;;;96.70;36.73;;;-9.60;99.90;;;;;;5021679;28;20101;-79
2024/01/10 05:16:53;;;;;;;105.88;37.08;;;-9.60;99.90;;;;;;5014804;28;20022;-84
2024/01/10 05:19:19;;;;;;;95.75;36.88;;;-9.60;99.90;;;;;;5022695;28;20470;-77
2024/01/10 05:21:44;;;;;;;112.18;39.85;;;-9.60;99.90;;;;;;5023785;28;20091;-78
2024/01/10 05:24:11;;;;;;;107.05;38.45;;;-9.60;99.90;;;;;;5019090;28;20044;-84
2024/01/10 05:26:36;;;;;;;116.60;40.53;;;-9.70;99.90;;;;;;5021962;28;20040;-78
2024/01/10 05:29:02;;;;;;;96.05;38.00;;;-9.70;99.90;;;;;;5016714;28;20041;-77
2024/01/10 05:31:28;;;;;;;111.90;39.00;;;-9.80;99.90;;;;;;5022845;28;20029;-77
2024/01/10 05:33:53;;;;;;;107.82;40.55;;;-9.80;99.90;;;;;;5023108;28;20389;-79
2024/01/10 05:36:23;;;;;;;112.10;40.83;;;-9.80;99.90;;;;;;5012515;28;20417;-77
2024/01/10 05:38:49;;;;;;;106.73;41.93;;;-9.80;99.90;;;;;;5021422;28;20025;-79
2024/01/10 05:41:14;;;;;;;108.18;42.15;;;-9.90;99.90;;;;;;5021956;28;20712;-77
2024/01/10 05:43:41;;;;;;;115.65;40.92;;;-9.90;99.90;;;;;;5019149;28;20545;-78
2024/01/10 05:46:06;;;;;;;116.30;41.30;;;-9.80;99.90;;;;;;5014438;28;20021;-78
2024/01/10 05:48:32;;;;;;;105.13;39.97;;;-9.80;99.90;;;;;;5019109;28;20040;-78
2024/01/10 05:50:58;;;;;;;107.68;41.63;;;-9.80;99.90;;;;;;5017321;28;20112;-78
2024/01/10 05:53:24;;;;;;;105.53;40.03;;;-9.70;99.90;;;;;;5020654;28;20036;-78
2024/01/10 05:55:51;;;;;;;101.47;39.17;;;-9.80;99.90;;;;;;5022510;28;20033;-78
2024/01/10 05:58:16;;;;;;;112.35;42.38;;;-9.80;99.90;;;;;;5025686;28;20027;-79
2024/01/10 06:00:42;;;;;;;98.90;39.75;;;-9.90;99.90;;;;;;5031567;28;20539;-77
2024/01/10 06:03:07;;;;;;;95.80;37.72;;;-9.90;99.90;;;;;;5033399;28;20092;-78
2024/01/10 06:05:33;;;;;;;121.27;43.13;;;-9.90;99.90;;;;;;5021102;28;20456;-77
2024/01/10 06:07:59;;;;;;;111.63;43.05;;;-10.00;99.90;;;;;;5024207;28;20033;-78
2024/01/10 06:10:24;;;;;;;112.13;41.93;;;-10.00;99.90;;;;;;5022269;28;20410;-78
2024/01/10 06:12:50;;;;;;;107.40;39.07;;;-10.00;99.90;;;;;;5025490;28;20497;-78
2024/01/10 06:15:17;;;;;;;91.27;36.70;;;-10.00;99.90;;;;;;5016223;28;20095;-82
2024/01/10 06:17:45;;;;;;;117.17;41.10;;;-9.90;99.90;;;;;;5024234;28;20121;-82
2024/01/10 06:20:11;;;;;;;106.03;40.67;;;-9.80;99.90;;;;;;5023105;28;20040;-78
2024/01/10 06:22:37;;;;;;;102.80;39.47;;;-9.80;99.90;;;;;;5024592;28;20029;-82
2024/01/10 06:25:03;;;;;;;114.55;40.70;;;-9.80;99.90;;;;;;5013910;28;20398;-77
2024/01/10 06:27:30;;;;;;;107.33;40.13;;;-9.70;99.90;;;;;;5018860;28;20029;-78
2024/01/10 06:29:55;;;;;;;104.53;38.83;;;-9.70;99.90;;;;;;5029221;28;20046;-78
2024/01/10 06:32:21;;;;;;;101.60;38.90;;;-9.70;99.90;;;;;;5022861;28;20030;-81
2024/01/10 06:34:47;;;;;;;92.20;36.08;;;-9.80;99.90;;;;;;5017180;28;20040;-82
2024/01/10 06:37:13;;;;;;;104.65;38.40;;;-9.80;99.90;;;;;;5025700;28;20030;-78
2024/01/10 06:39:38;;;;;;;102.90;39.85;;;-9.80;99.90;;;;;;5027488;28;20079;-78
2024/01/10 06:42:06;;;;;;;97.93;40.20;;;-9.90;99.90;;;;;;5027705;28;20021;-77
2024/01/10 06:44:31;;;;;;;114.32;40.00;;;-9.90;99.90;;;;;;5023139;28;20017;-77
2024/01/10 06:46:57;;;;;;;115.03;39.95;;;-9.90;99.90;;;;;;5014514;28;20524;-77
2024/01/10 06:49:23;;;;;;;105.70;40.40;;;-9.90;99.90;;;;;;5018441;28;20030;-80
2024/01/10 06:51:48;;;;;;;117.82;43.80;;;-9.90;99.90;;;;;;5016283;28;20489;-77
2024/01/10 06:54:14;;;;;;;109.18;39.47;;;-9.90;99.90;;;;;;5017421;28;20044;-77
2024/01/10 06:56:41;;;;;;;97.82;40.03;;;-9.90;99.90;;;;;;5019701;28;20041;-77
2024/01/10 06:59:06;;;;;;;118.40;41.83;;;-9.90;99.90;;;;;;5018288;28;20044;-78
2024/01/10 07:01:32;;;;;;;108.93;44.53;;;-9.80;99.90;;;;;;5023585;28;20029;-77
2024/01/10 07:03:57;;;;;;;95.57;40.47;;;-9.80;99.90;;;;;;5019682;28;20030;-78
2024/01/10 07:06:23;;;;;;;116.40;41.80;;;-9.80;99.90;;;;;;5016915;28;20045;-79
2024/01/10 07:08:52;;;;;;;109.82;40.30;;;-9.80;99.90;;;;;;5019258;28;20080;-77
2024/01/10 07:11:24;;;;;;;119.60;43.65;;;-9.90;99.90;;;;;;5020327;28;20033;-77
2024/01/10 07:13:50;;;;;;;113.65;42.03;;;-9.90;99.90;;;;;;5021785;28;20105;-77
2024/01/10 07:16:15;;;;;;;116.20;43.25;;;-10.00;99.90;;;;;;5027588;28;20105;-80
2024/01/10 07:18:43;;;;;;;108.00;39.57;;;-10.00;99.90;;;;;;5019762;28;20356;-82
2024/01/10 07:21:09;;;;;;;103.45;40.15;;;-10.00;99.90;;;;;;5020524;28;20060;-77
2024/01/10 07:23:35;;;;;;;108.03;43.53;;;-10.00;99.90;;;;;;5015169;28;20021;-77
2024/01/10 07:26:01;;;;;;;124.20;46.37;;;-10.10;99.90;;;;;;5024455;28;20076;-77
2024/01/10 07:28:26;;;;;;;117.43;42.92;;;-10.10;99.90;;;;;;5027974;28;20022;-80
2024/01/10 07:30:52;;;;;;;109.65;40.20;;;-10.10;99.90;;;;;;5031531;28;20124;-78
2024/01/10 07:33:18;;;;;;;126.20;47.65;;;-10.10;99.90;;;;;;5032324;28;20021;-77
2024/01/10 07:35:57;;;;;;;114.77;42.73;;;-10.10;99.90;;;;;;5025076;28;20750;-77
2024/01/10 07:38:23;;;;;;;98.40;39.57;;;-10.10;99.90;;;;;;5025294;28;20063;-78
2024/01/10 07:40:48;;;;;;;119.43;44.37;;;-10.10;99.90;;;;;;5021168;28;20048;-80
2024/01/10 07:43:14;;;;;;;110.80;42.77;;;-10.00;99.90;;;;;;5027868;28;20021;-77
2024/01/10 07:45:39;;;;;;;101.35;41.17;;;-10.00;99.90;;;;;;5023612;28;20027;-77
2024/01/10 07:48:05;;;;;;;132.73;47.60;;;-10.00;99.90;;;;;;5022620;28;20072;-78
2024/01/10 07:50:31;;;;;;;106.03;41.17;;;-10.00;99.90;;;;;;5018566;28;20029;-77
2024/01/10 07:52:56;;;;;;;131.02;44.38;;;-10.00;99.90;;;;;;5023008;28;20532;-77
2024/01/10 07:55:22;;;;;;;100.95;40.45;;;-10.00;99.90;;;;;;5024017;28;20393;-78
2024/01/10 07:57:48;;;;;;;119.93;46.42;;;-9.90;99.90;;;;;;5004177;28;22149;-81
2024/01/10 08:00:20;;;;;;;105.47;40.53;;;-9.90;99.90;;;;;;5016103;28;20041;-77
2024/01/10 08:02:47;;;;;;;98.13;40.13;;;-9.90;99.90;;;;;;5018131;28;20068;-81
2024/01/10 08:05:12;;;;;;;119.50;39.83;;;-9.90;99.90;;;;;;5025896;28;20049;-77
2024/01/10 08:07:38;;;;;;;105.70;41.30;;;-9.90;99.90;;;;;;5025407;28;20029;-78
2024/01/10 08:10:09;;;;;;;96.82;38.80;;;-9.80;99.90;;;;;;5024425;28;20512;-77
2024/01/10 08:12:38;;;;;;;135.43;42.95;;;-9.80;99.90;;;;;;5021925;28;20026;-77
2024/01/10 08:15:06;;;;;;;108.47;40.58;;;-9.80;99.90;;;;;;5025081;28;20037;-77
2024/01/10 08:17:32;;;;;;;114.50;46.08;;;-9.70;99.90;;;;;;5024136;28;20544;-77
2024/01/10 08:19:58;;;;;;;117.22;44.03;;;-9.70;99.90;;;;;;5020292;28;20048;-81
2024/01/10 08:22:24;;;;;;;119.90;45.00;;;-9.70;99.90;;;;;;5023412;28;20482;-77
2024/01/10 08:24:50;;;;;;;116.72;46.42;;;-9.70;99.90;;;;;;5020329;28;20024;-78
2024/01/10 08:27:17;;;;;;;124.93;48.08;;;-9.70;99.90;;;;;;5026896;28;20107;-77
2024/01/10 08:29:42;;;;;;;120.77;45.10;;;-9.70;99.90;;;;;;5024973;28;20047;-79
2024/01/10 08:32:08;;;;;;;127.75;48.10;;;-9.70;99.90;;;;;;5023284;28;20108;-79
2024/01/10 08:34:33;;;;;;;154.07;51.03;;;-9.60;99.90;;;;;;5016985;28;20033;-77
2024/01/10 08:36:59;;;;;;;124.50;47.40;;;-9.60;99.90;;;;;;5020736;28;20026;-78
2024/01/10 08:39:28;;;;;;;117.38;49.45;;;-9.50;99.90;;;;;;5025038;28;20085;-77
2024/01/10 08:41:53;;;;;;;134.80;48.22;;;-9.40;99.90;;;;;;5023924;28;20034;-78
2024/01/10 08:44:22;;;;;;;136.77;50.45;;;-9.40;99.90;;;;;;5036433;28;20033;-81
2024/01/10 08:46:48;;;;;;;143.63;52.60;;;-9.30;99.90;;;;;;5018300;28;20029;-78
2024/01/10 08:49:13;;;;;;;125.38;47.50;;;-9.30;99.90;;;;;;5032979;28;20512;-80
2024/01/10 08:51:40;;;;;;;134.52;51.88;;;-9.20;99.90;;;;;;5016400;28;20124;-79
2024/01/10 08:54:06;;;;;;;131.48;49.47;;;-9.20;99.90;;;;;;5022625;28;20033;-77
2024/01/10 08:56:32;;;;;;;129.10;50.53;;;-9.10;99.90;;;;;;5027309;28;20029;-77
2024/01/10 08:58:57;;;;;;;115.13;46.78;;;-9.00;99.90;;;;;;5025038;28;20025;-78
2024/01/10 09:01:23;;;;;;;132.07;48.78;;;-9.00;99.90;;;;;;5022738;28;20029;-78
2024/01/10 09:03:49;;;;;;;130.95;48.45;;;-8.90;99.90;;;;;;5023181;28;20087;-77
2024/01/10 09:06:16;;;;;;;115.05;45.30;;;-8.90;99.90;;;;;;5023669;28;20128;-79
2024/01/10 09:08:42;;;;;;;145.13;52.97;;;-8.80;99.90;;;;;;5026435;28;20075;-78
2024/01/10 09:11:09;;;;;;;140.68;53.65;;;-8.70;99.90;;;;;;5022671;28;20017;-80
2024/01/10 09:13:34;;;;;;;135.82;53.75;;;-8.60;99.90;;;;;;5016128;28;20089;-77
2024/01/10 09:16:00;;;;;;;132.35;53.85;;;-8.50;99.90;;;;;;5017717;28;20025;-78
2024/01/10 09:18:26;;;;;;;139.73;53.40;;;-8.40;99.90;;;;;;5017195;28;20025;-78
2024/01/10 09:20:51;;;;;;;148.40;56.47;;;-8.30;99.90;;;;;;5021596;28;20542;-78
2024/01/10 09:23:18;;;;;;;151.70;58.53;;;-8.30;99.90;;;;;;5017124;28;20508;-79
2024/01/10 09:25:44;;;;;;;159.38;61.17;;;-8.20;99.90;;;;;;5021954;28;20036;-78
2024/01/10 09:28:10;;;;;;;158.25;56.63;;;-8.10;99.90;;;;;;5024808;28;20022;-78
2024/01/10 09:30:35;;;;;;;145.65;56.60;;;-8.10;99.90;;;;;;5021115;28;20052;-77
2024/01/10 09:33:01;;;;;;;151.70;58.85;;;-8.00;99.90;;;;;;5018275;28;20076;-77
2024/01/10 09:35:27;;;;;;;147.77;57.67;;;-8.00;99.90;;;;;;5021397;28;20040;-78
2024/01/10 09:37:56;;;;;;;147.70;58.60;;;-7.90;99.90;;;;;;5016261;28;20029;-80
2024/01/10 09:40:23;;;;;;;153.35;60.05;;;-7.90;99.90;;;;;;5021676;28;20532;-80
2024/01/10 09:42:51;;;;;;;145.18;57.92;;;-7.90;99.90;;;;;;5019959;28;20030;-79
2024/01/10 09:45:18;;;;;;;171.88;62.58;;;-7.80;99.90;;;;;;5017496;28;20075;-79
2024/01/10 09:47:49;;;;;;;164.93;59.00;;;-7.70;99.90;;;;;;5020480;28;20060;-78
2024/01/10 09:50:16;;;;;;;153.25;60.65;;;-7.80;99.90;;;;;;5018781;28;20038;-81
2024/01/10 09:53:06;;;;;;;143.23;55.58;;;-7.70;99.90;;;;;;5026338;28;20075;-79
2024/01/10 09:55:35;;;;;;;151.15;59.55;;;-7.70;99.90;;;;;;5020927;28;20087;-78
2024/01/10 09:58:10;;;;;;;157.65;58.92;;;-7.60;99.90;;;;;;5020692;28;20437;-81
2024/01/10 10:00:36;;;;;;;155.20;59.70;;;-7.60;99.90;;;;;;5022262;28;20032;-79
2024/01/10 10:03:08;;;;;;;151.45;57.03;;;-7.60;99.90;;;;;;5019859;28;20048;-78
2024/01/10 10:05:34;;;;;;;142.77;54.67;;;-7.60;99.90;;;;;;5020511;28;20425;-78
2024/01/10 10:08:00;;;;;;;151.52;57.35;;;-7.50;99.90;;;;;;5020323;28;20025;-79
2024/01/10 10:10:28;;;;;;;148.23;58.15;;;-7.50;99.90;;;;;;5020911;28;20044;-83
2024/01/10 10:12:54;;;;;;;137.48;56.40;;;-7.40;99.90;;;;;;5018091;28;20057;-79
2024/01/10 10:15:26;;;;;;;137.98;58.92;;;-7.40;99.90;;;;;;5020132;28;20034;-79
2024/01/10 10:17:53;;;;;;;141.40;56.97;;;-7.40;99.90;;;;;;5017809;28;20041;-79
2024/01/10 10:20:32;;;;;;;151.90;58.83;;;-7.30;99.90;;;;;;5019289;28;20104;-78
2024/01/10 10:23:05;;;;;;;154.57;58.30;;;-7.30;99.90;;;;;;5020744;28;20124;-80
2024/01/10 10:25:45;;;;;;;150.02;56.55;;;-7.30;99.90;;;;;;5014567;28;20029;-78
2024/01/10 10:28:11;;;;;;;149.00;58.83;;;-7.30;99.90;;;;;;5021340;28;20029;-83
2024/01/10 10:30:37;;;;;;;132.27;54.53;;;-7.30;99.90;;;;;;5016762;28;20406;-79
2024/01/10 10:33:03;;;;;;;130.77;55.50;;;-7.30;99.90;;;;;;5021131;28;20249;-78
2024/01/10 10:35:29;;;;;;;146.02;58.45;;;-7.20;99.90;;;;;;5020097;28;20041;-78
2024/01/10 10:37:55;;;;;;;138.40;58.67;;;-7.20;99.90;;;;;;5019019;28;20048;-79
2024/01/10 10:40:21;;;;;;;135.55;55.63;;;-7.10;99.90;;;;;;5015867;28;20029;-78
2024/01/10 10:42:56;;;;;;;135.98;57.75;;;-7.20;99.90;;;;;;5012140;28;20022;-79
2024/01/10 10:45:26;;;;;;;148.60;55.75;;;-7.10;99.90;;;;;;5024977;28;20033;-82
2024/01/10 10:47:59;;;;;;;141.73;58.08;;;-7.10;99.90;;;;;;5028830;28;20041;-81
2024/01/10 10:50:29;;;;;;;139.50;53.50;;;-7.10;99.90;;;;;;5024454;28;20132;-78
2024/01/10 10:52:58;;;;;;;139.52;55.88;;;-7.10;99.90;;;;;;5017356;28;20386;-78
2024/01/10 10:55:26;;;;;;;145.00;57.30;;;-7.00;99.90;;;;;;5019924;28;20038;-81
2024/01/10 10:57:53;;;;;;;138.93;55.67;;;-6.90;99.90;;;;;;5020349;28;20445;-79
2024/01/10 11:00:26;;;;;;;146.68;57.17;;;-6.90;99.90;;;;;;5030492;28;20033;-80
2024/01/10 11:02:54;;;;;;;146.68;55.30;;;-6.90;99.90;;;;;;5024851;28;20377;-79
2024/01/10 11:05:20;;;;;;;137.82;54.05;;;-6.80;99.90;;;;;;5022697;28;20068;-78
2024/01/10 11:07:48;;;;;;;149.60;56.65;;;-6.80;99.90;;;;;;5027942;28;20112;-79
2024/01/10 11:10:23;;;;;;;134.40;54.00;;;-6.80;99.90;;;;;;5018329;28;20048;-82
2024/01/10 11:12:55;;;;;;;151.50;58.25;;;-6.80;99.90;;;;;;5019243;28;20053;-82
2024/01/10 11:15:31;;;;;;;163.38;62.10;;;-6.70;99.90;;;;;;5012875;28;20148;-79
2024/01/10 11:18:02;;;;;;;126.90;53.53;;;-6.60;99.90;;;;;;5019855;28;20363;-79
2024/01/10 11:20:59;;;;;;;145.88;56.00;;;-6.70;99.90;;;;;;5021587;28;20025;-78
2024/01/10 11:23:44;;;;;;;;;;;-6.70;99.90;;;;;;5032981;28;20040;-78
2024/01/10 11:26:10;;;;;;;138.02;55.67;;;-6.60;99.90;;;;;;5013649;28;19917;-78
2024/01/10 11:28:39;;;;;;;154.90;59.03;;;-6.60;99.90;;;;;;5025449;28;20025;-80
2024/01/10 11:31:08;;;;;;;146.90;57.10;;;-6.60;99.90;;;;;;5025554;28;20039;-78
2024/01/10 11:33:39;;;;;;;151.30;60.50;;;-6.50;99.90;;;;;;5025777;28;20083;-78
2024/01/10 11:36:24;;;;;;;144.38;60.00;;;-6.50;99.90;;;;;;5014362;28;20029;-79
2024/01/10 11:38:53;;;;;;;139.45;58.72;;;-6.50;99.90;;;;;;5022308;28;20049;-78
2024/01/10 11:41:36;;;;;;;154.57;62.63;;;-6.50;99.90;;;;;;5015894;28;20058;-78
2024/01/10 11:46:40;;;;;;;158.50;61.85;;;-6.40;99.90;;;;;;5031213;28;20072;-79
2024/01/10 11:49:10;;;;;;;154.68;63.67;;;-6.40;99.90;;;;;;5019973;28;20049;-78
2024/01/10 11:51:36;;;;;;;152.98;61.85;;;-6.20;99.90;;;;;;5025791;28;20025;-79
2024/01/10 11:54:02;;;;;;;163.32;60.97;;;-6.30;99.90;;;;;;5025167;28;20026;-78
2024/01/10 11:56:46;;;;;;;146.00;62.50;;;-6.30;99.90;;;;;;5025481;28;20116;-78
2024/01/10 11:59:16;;;;;;;152.25;61.88;;;-6.20;99.90;;;;;;5035410;28;20055;-79
2024/01/10 12:01:42;;;;;;;158.50;62.88;;;-6.30;99.90;;;;;;5017011;28;20022;-79
2024/01/10 12:04:11;;;;;;;156.73;62.25;;;-6.30;99.90;;;;;;5027860;28;20091;-78
2024/01/10 12:06:37;;;;;;;136.02;58.67;;;-6.30;99.90;;;;;;5017802;28;20041;-80
2024/01/10 12:09:13;;;;;;;142.80;60.65;;;-6.30;99.90;;;;;;5025039;28;20042;-78
2024/01/10 12:11:41;;;;;;;154.55;63.47;;;-6.20;99.90;;;;;;5019873;28;20025;-79
2024/01/10 12:14:08;;;;;;;161.85;62.70;;;-6.20;99.90;;;;;;5025436;28;20116;-81
2024/01/10 12:16:33;;;;;;;158.95;63.45;;;-6.20;99.90;;;;;;5033372;28;20036;-78
2024/01/10 12:18:59;;;;;;;151.43;60.42;;;-6.10;99.90;;;;;;5029360;28;20025;-78
2024/01/10 12:21:24;;;;;;;159.60;64.20;;;-6.20;99.90;;;;;;5026775;28;20033;-78
2024/01/10 12:23:51;;;;;;;155.55;62.13;;;-6.20;99.90;;;;;;5027198;28;20242;-78
2024/01/10 12:26:17;;;;;;;150.35;61.25;;;-6.10;99.90;;;;;;5016527;28;20037;-78